Hauptseite
METAR-TAF:

METAR-TAF

Flughäfen :

Flughafen Curaçao

Curaçao, Niederländische Antillen

Breite: 12-12N, Länge: 068-58W, Höhe: 9 m

Beobachtung

Neuester Wetterbericht von vor 44 Minuten, um 02:00 UTC
Wind 8 kt aus Ost, variierte zwischen Ost/Nordost und Ost/Südost
Temperatur 26°C
Luftfeuchtigkeit 79%
Luftdruck 1013 hPa
Sichtweite 10 km oder mehr
Aufgelockert bewölkt in der Höhe von 1800 ft

METAR: TNCC 230200Z 09008KT 060V120 9999 SCT018 26/22 Q1013 NOSIG

Zeit: 22:44 (02:44 UTC)

Prognose

Neuester Wetterbericht von vor 4 Stunden und 44 Minuten, um 22:00 UTC
Gültige Prognose vom 23 um 00 UTC bis 23 um 24 UTC
Wind 15 kt aus Ost
Sichtweite 10 km oder mehr
Aufgelockert bewölkt in der Höhe von 2000 ft

TAF: TNCC 222200Z 2300/2324 09015KT 9999 SCT020

Wetterbeobachtungen und Prognosen von mehr als 4000 Flughäfen (METAR und TAF Bericht).

Die verfügbaren Stationen werden durch gelbe und rote Markierungen auf der Karte dargestellt.

Führen Sie die Maus auf sie, um den Namen der Station zu sehen.

Darauf klicken, um die Beobachtung von Wetterbeobachtungen und Prognosen zu sehen.

Um die Karte zu ändern : klicken Sie auf den grünen Tasten mit einem schwarzen Kreuz Zum Vergrößern, auf den grünen Button mit einem Gedankenstrich zu verkleinern, oder auf die grünen Pfeile für benachbarte Karten.


METAR-TAF: